Time;durP1;ratioP1;P1;durP2;ratioP2;P2;SDS_P1;SDS_P2;PMS_P1;PMS_P2;Temp;Humidity;BMP_temperature;BMP_pressure;BME280_temperature;BME280_humidity;BME280_pressure;Samples;Min_cycle;Max_cycle;Signal;HPM_P1;HPM_P2
2021/01/28 00:01:41;;;;;;;7.40;4.50;;;5.80;99.90;;;;;;5037529;28;20245;-61
2021/01/28 00:04:06;;;;;;;3.80;3.50;;;5.80;99.90;;;;;;5037292;28;20531;-61
2021/01/28 00:06:32;;;;;;;5.30;4.60;;;5.70;99.90;;;;;;5037062;28;20191;-61
2021/01/28 00:08:57;;;;;;;5.23;4.77;;;5.80;99.90;;;;;;5036890;28;20220;-59
2021/01/28 00:11:23;;;;;;;4.50;4.10;;;5.50;99.90;;;;;;5036906;28;20196;-59
2021/01/28 00:13:49;;;;;;;4.83;4.20;;;5.30;99.90;;;;;;5037042;28;20199;-61
2021/01/28 00:16:14;;;;;;;6.43;5.73;;;5.40;99.90;;;;;;5036703;28;20254;-60
2021/01/28 00:18:40;;;;;;;5.87;5.30;;;5.40;99.90;;;;;;5036645;28;20175;-61
2021/01/28 00:21:06;;;;;;;5.90;5.30;;;5.30;99.90;;;;;;5036100;28;20297;-61
2021/01/28 00:23:31;;;;;;;5.13;4.63;;;5.10;99.90;;;;;;5035767;28;20180;-59
2021/01/28 00:25:57;;;;;;;5.23;4.83;;;5.30;99.90;;;;;;5036532;28;20424;-61
2021/01/28 00:28:23;;;;;;;6.87;6.13;;;5.20;99.90;;;;;;5036997;28;20195;-60
2021/01/28 00:30:52;;;;;;;6.10;5.50;;;5.20;99.90;;;;;;5036668;28;20199;-61
2021/01/28 00:33:24;;;;;;;5.67;5.03;;;5.20;99.90;;;;;;5036538;28;20485;-58
2021/01/28 00:35:51;;;;;;;4.33;4.00;;;5.40;99.90;;;;;;5036676;28;20418;-59
2021/01/28 00:38:24;;;;;;;5.83;4.50;;;5.50;99.90;;;;;;5036621;28;20414;-60
2021/01/28 00:40:50;;;;;;;6.03;5.00;;;5.30;99.90;;;;;;5036857;28;20437;-60
2021/01/28 00:43:16;;;;;;;5.33;4.50;;;5.40;99.90;;;;;;5036941;28;20425;-60
2021/01/28 00:45:42;;;;;;;4.37;3.97;;;5.30;99.90;;;;;;5036215;28;20778;-60
2021/01/28 00:48:08;;;;;;;4.53;4.13;;;5.20;99.90;;;;;;5036421;28;20410;-60
2021/01/28 00:50:35;;;;;;;4.87;4.13;;;5.20;99.90;;;;;;5036482;28;20978;-61
2021/01/28 00:53:02;;;;;;;4.60;4.20;;;5.30;99.90;;;;;;5036467;28;20468;-60
2021/01/28 00:55:27;;;;;;;4.50;4.10;;;5.50;99.90;;;;;;5038969;28;20417;-60
2021/01/28 00:57:53;;;;;;;4.60;4.20;;;5.30;99.90;;;;;;5036638;28;20412;-59
2021/01/28 01:00:37;;;;;;;4.40;4.00;;;5.30;99.90;;;;;;5036031;28;20269;-60
2021/01/28 01:03:03;;;;;;;4.70;3.67;;;5.50;99.90;;;;;;5037480;28;20398;-60
2021/01/28 01:05:32;;;;;;;4.10;3.70;;;5.70;99.90;;;;;;5036383;28;20779;-59
2021/01/28 01:07:58;;;;;;;4.83;4.43;;;5.90;99.90;;;;;;5036164;28;20402;-59
2021/01/28 01:10:32;;;;;;;4.87;4.47;;;5.90;99.90;;;;;;5036350;28;20472;-60
2021/01/28 01:12:58;;;;;;;4.60;4.20;;;5.80;99.90;;;;;;5036111;28;20418;-58
2021/01/28 01:15:24;;;;;;;4.67;4.00;;;5.50;99.90;;;;;;5035423;28;20430;-59
2021/01/28 01:17:49;;;;;;;5.33;4.80;;;5.50;99.90;;;;;;5036020;28;20616;-60
2021/01/28 01:20:18;;;;;;;4.70;4.30;;;5.40;99.90;;;;;;5035328;28;20302;-59
2021/01/28 01:22:44;;;;;;;4.33;3.93;;;5.40;99.90;;;;;;5035674;28;20406;-59
2021/01/28 01:25:10;;;;;;;4.20;3.80;;;5.50;99.90;;;;;;5035626;28;20845;-60
2021/01/28 01:27:36;;;;;;;5.23;4.73;;;5.40;99.90;;;;;;5036181;28;20179;-59
2021/01/28 01:30:04;;;;;;;5.13;4.73;;;5.50;99.90;;;;;;5035415;28;20461;-59
2021/01/28 01:32:29;;;;;;;4.40;4.00;;;5.50;99.90;;;;;;5035401;28;20636;-61
2021/01/28 01:34:55;;;;;;;4.80;4.30;;;5.60;99.90;;;;;;5035111;28;20453;-61
2021/01/28 01:37:20;;;;;;;4.50;4.10;;;5.60;99.90;;;;;;5035075;28;20305;-60
2021/01/28 01:39:46;;;;;;;3.80;3.50;;;5.60;99.90;;;;;;5032905;28;20194;-62
2021/01/28 01:42:12;;;;;;;5.87;4.80;;;5.60;99.90;;;;;;5028985;28;20659;-59
2021/01/28 01:44:37;;;;;;;6.70;4.93;;;5.60;99.90;;;;;;5032070;28;20266;-59
2021/01/28 01:47:32;;;;;;;4.40;4.00;;;5.60;99.90;;;;;;5015089;28;20549;-61
2021/01/28 01:49:58;;;;;;;3.90;3.60;;;5.60;99.90;;;;;;4981892;28;20302;-60
2021/01/28 01:52:29;;;;;;;4.40;3.70;;;5.50;99.90;;;;;;5015465;28;20447;-61
2021/01/28 01:54:55;;;;;;;4.40;4.03;;;5.50;99.90;;;;;;5015917;28;20164;-60
2021/01/28 01:57:28;;;;;;;4.13;3.73;;;5.60;99.90;;;;;;5014997;28;20465;-60
2021/01/28 02:00:00;;;;;;;4.13;3.20;;;5.70;99.90;;;;;;5014749;28;20457;-60
2021/01/28 02:02:25;;;;;;;4.00;3.60;;;5.80;99.90;;;;;;5014538;28;20419;-61
2021/01/28 02:04:59;;;;;;;3.90;3.50;;;5.70;99.90;;;;;;5014950;28;20411;-60
2021/01/28 02:07:27;;;;;;;3.70;3.40;;;5.70;99.90;;;;;;5015347;28;20570;-60
2021/01/28 02:09:53;;;;;;;3.70;3.20;;;5.70;99.90;;;;;;5015251;28;20867;-61
2021/01/28 02:12:19;;;;;;;5.00;3.77;;;5.80;99.90;;;;;;5015292;28;20407;-60
2021/01/28 02:14:46;;;;;;;3.77;3.40;;;5.90;99.90;;;;;;5015062;28;20168;-60
2021/01/28 02:17:18;;;;;;;3.70;3.40;;;5.80;99.90;;;;;;5014282;28;20417;-60
2021/01/28 02:19:59;;;;;;;3.70;3.40;;;5.80;99.90;;;;;;5014035;28;20447;-60
2021/01/28 02:22:32;;;;;;;4.00;3.60;;;5.80;99.90;;;;;;5014982;28;20391;-60
2021/01/28 02:25:18;;;;;;;3.70;3.00;;;5.80;99.90;;;;;;5014778;28;20466;-59
2021/01/28 02:27:45;;;;;;;4.40;3.80;;;5.80;99.90;;;;;;5015027;28;20391;-58
2021/01/28 02:30:18;;;;;;;3.63;3.33;;;5.80;99.90;;;;;;5015473;28;20462;-60
2021/01/28 02:32:47;;;;;;;4.53;4.07;;;5.90;99.90;;;;;;5015104;28;20398;-59
2021/01/28 02:35:14;;;;;;;2.97;2.77;;;5.80;99.90;;;;;;5018044;28;20892;-60
2021/01/28 02:37:39;;;;;;;3.17;2.80;;;5.90;99.90;;;;;;5034569;28;20471;-60
2021/01/28 02:40:07;;;;;;;3.87;3.23;;;6.00;99.90;;;;;;5034201;28;20426;-60
2021/01/28 02:42:33;;;;;;;2.77;2.57;;;5.90;99.90;;;;;;5033937;28;20670;-60
2021/01/28 02:44:59;;;;;;;3.17;2.97;;;6.00;99.90;;;;;;5034432;28;20900;-59
2021/01/28 02:47:26;;;;;;;2.50;2.30;;;6.00;99.90;;;;;;5038498;28;20449;-59
2021/01/28 02:49:52;;;;;;;2.77;2.57;;;5.90;99.90;;;;;;5041010;28;20195;-58
2021/01/28 02:52:18;;;;;;;3.43;2.97;;;6.00;99.90;;;;;;5038413;28;20397;-58
2021/01/28 02:54:50;;;;;;;3.20;2.90;;;6.00;99.90;;;;;;5038969;28;20406;-58
2021/01/28 02:57:16;;;;;;;2.40;2.20;;;6.10;99.90;;;;;;5038628;28;20457;-60
2021/01/28 02:59:41;;;;;;;3.07;2.80;;;6.00;99.90;;;;;;5038775;28;20410;-60
2021/01/28 03:02:14;;;;;;;3.07;2.77;;;6.00;99.90;;;;;;5038114;28;20456;-60
2021/01/28 03:04:40;;;;;;;2.80;2.60;;;6.00;99.90;;;;;;5038650;28;20179;-60
2021/01/28 03:07:08;;;;;;;2.70;2.50;;;6.10;99.90;;;;;;5038344;28;20422;-58
2021/01/28 03:09:34;;;;;;;2.90;2.57;;;6.00;99.90;;;;;;5038156;28;20464;-60
2021/01/28 03:11:59;;;;;;;2.23;2.03;;;6.00;99.90;;;;;;5038773;28;20724;-60
2021/01/28 03:14:25;;;;;;;2.87;2.67;;;6.00;99.90;;;;;;5038330;28;20176;-59
2021/01/28 03:16:51;;;;;;;2.70;2.50;;;6.00;99.90;;;;;;5037841;28;20180;-59
2021/01/28 03:19:18;;;;;;;2.43;2.23;;;6.10;99.90;;;;;;5038559;28;20775;-58
2021/01/28 03:21:44;;;;;;;3.00;1.90;;;6.10;99.90;;;;;;5038124;28;20813;-60
2021/01/28 03:24:10;;;;;;;3.03;2.67;;;6.10;99.90;;;;;;5037995;28;20492;-60
2021/01/28 03:26:36;;;;;;;2.20;2.00;;;6.20;99.90;;;;;;5038086;28;20624;-60
2021/01/28 03:29:04;;;;;;;2.57;2.30;;;6.10;99.90;;;;;;5037848;28;20458;-59
2021/01/28 03:31:29;;;;;;;2.30;2.10;;;6.00;99.90;;;;;;5037411;28;20430;-60
2021/01/28 03:33:55;;;;;;;2.60;2.40;;;6.00;99.90;;;;;;5038148;28;20410;-60
2021/01/28 03:36:20;;;;;;;2.37;2.10;;;6.20;99.90;;;;;;5038012;28;20183;-59
2021/01/28 03:38:46;;;;;;;3.40;3.10;;;6.10;99.90;;;;;;5037439;28;20171;-59
2021/01/28 03:41:12;;;;;;;3.03;2.73;;;6.10;99.90;;;;;;5037910;28;20196;-57
2021/01/28 03:43:37;;;;;;;3.20;2.47;;;6.10;99.90;;;;;;5037898;28;20266;-59
2021/01/28 03:46:03;;;;;;;3.40;3.10;;;6.00;99.90;;;;;;5037926;28;20167;-59
2021/01/28 03:48:28;;;;;;;4.23;3.53;;;6.00;99.90;;;;;;5037718;28;20282;-60
2021/01/28 03:50:54;;;;;;;3.50;3.20;;;6.00;99.90;;;;;;5037372;28;20191;-59
2021/01/28 03:53:20;;;;;;;3.73;3.40;;;6.00;99.90;;;;;;5037572;28;20537;-59
2021/01/28 03:55:45;;;;;;;3.47;3.10;;;6.00;99.90;;;;;;5037249;28;20174;-60
2021/01/28 03:58:11;;;;;;;4.60;2.20;;;6.00;99.90;;;;;;5035932;28;20572;-59
2021/01/28 04:00:37;;;;;;;2.67;2.47;;;5.90;99.90;;;;;;5037292;28;20247;-58
2021/01/28 04:03:04;;;;;;;2.77;2.57;;;6.00;99.90;;;;;;5037447;28;20231;-60
2021/01/28 04:05:30;;;;;;;2.80;2.40;;;6.00;99.90;;;;;;5036916;28;20485;-59
2021/01/28 04:07:56;;;;;;;3.07;2.50;;;5.90;99.90;;;;;;5037418;28;20397;-60
2021/01/28 04:10:34;;;;;;;3.33;2.97;;;6.00;99.90;;;;;;5037355;28;20249;-60
2021/01/28 04:13:00;;;;;;;3.40;2.60;;;6.10;99.90;;;;;;5037668;28;20385;-61
2021/01/28 04:15:26;;;;;;;3.67;3.30;;;6.10;99.90;;;;;;5036946;28;20406;-60
2021/01/28 04:17:53;;;;;;;4.27;3.57;;;5.80;99.90;;;;;;5037097;28;20428;-61
2021/01/28 04:20:22;;;;;;;4.20;2.97;;;5.90;99.90;;;;;;5036498;28;20203;-59
2021/01/28 04:22:47;;;;;;;3.73;3.23;;;6.00;99.90;;;;;;5037178;28;20398;-60
2021/01/28 04:25:14;;;;;;;3.23;2.93;;;6.20;99.90;;;;;;5036941;28;20406;-57
2021/01/28 04:27:40;;;;;;;3.33;3.03;;;6.20;99.90;;;;;;5037367;28;20181;-61
2021/01/28 04:30:08;;;;;;;4.10;3.70;;;6.20;99.90;;;;;;5029504;28;20545;-61
2021/01/28 04:32:34;;;;;;;3.93;3.53;;;6.00;99.90;;;;;;5031384;28;20179;-61
2021/01/28 04:34:59;;;;;;;4.20;3.83;;;5.90;99.90;;;;;;5036585;28;20918;-59
2021/01/28 04:37:25;;;;;;;4.43;3.50;;;5.80;99.90;;;;;;5036342;28;20432;-58
2021/01/28 04:39:51;;;;;;;4.60;4.00;;;5.80;99.90;;;;;;5036492;28;20204;-57
2021/01/28 04:42:22;;;;;;;4.60;3.90;;;5.80;99.90;;;;;;5036927;28;20538;-59
2021/01/28 04:44:49;;;;;;;4.67;4.00;;;5.90;99.90;;;;;;5036940;28;20400;-60
2021/01/28 04:47:19;;;;;;;4.23;3.83;;;5.90;99.90;;;;;;5036268;28;20778;-60
2021/01/28 04:49:55;;;;;;;3.37;3.07;;;5.80;99.90;;;;;;5036460;28;20450;-60
2021/01/28 04:52:23;;;;;;;3.90;3.53;;;5.80;99.90;;;;;;5036626;28;20409;-61
2021/01/28 04:54:53;;;;;;;3.47;3.17;;;5.90;99.90;;;;;;5036199;28;20410;-58
2021/01/28 04:57:19;;;;;;;3.93;3.50;;;5.90;99.90;;;;;;5037589;28;20397;-60
2021/01/28 04:59:49;;;;;;;3.57;3.27;;;6.00;99.90;;;;;;5037231;28;20508;-60
2021/01/28 05:02:19;;;;;;;3.87;3.50;;;6.10;99.90;;;;;;5036341;28;20156;-60
2021/01/28 05:04:52;;;;;;;6.90;3.77;;;6.10;99.90;;;;;;5036379;28;20410;-60
2021/01/28 05:07:25;;;;;;;4.27;3.87;;;6.20;99.90;;;;;;5036266;28;20417;-61
2021/01/28 05:10:11;;;;;;;4.13;3.80;;;6.20;99.90;;;;;;5035658;28;20453;-59
2021/01/28 05:12:38;;;;;;;5.33;3.97;;;6.10;99.90;;;;;;5036294;28;20419;-61
2021/01/28 05:15:24;;;;;;;4.47;4.03;;;6.10;99.90;;;;;;5036511;28;20452;-60
2021/01/28 05:18:03;;;;;;;4.37;3.80;;;6.20;99.90;;;;;;5035991;28;20481;-61
2021/01/28 05:20:30;;;;;;;5.50;4.03;;;6.30;99.90;;;;;;5035890;28;20445;-61
2021/01/28 05:23:02;;;;;;;5.03;4.07;;;6.40;99.90;;;;;;5035954;28;20432;-61
2021/01/28 05:25:29;;;;;;;4.23;3.83;;;6.40;99.90;;;;;;5035892;28;20796;-61
2021/01/28 05:27:55;;;;;;;4.00;3.60;;;6.20;99.90;;;;;;5035904;28;20415;-60
2021/01/28 05:30:40;;;;;;;3.60;3.30;;;6.40;99.90;;;;;;5036172;28;20595;-60
2021/01/28 05:33:40;;;;;;;5.40;3.60;;;6.50;99.90;;;;;;5035936;28;20159;-60
2021/01/28 05:36:26;;;;;;;4.10;3.70;;;6.60;99.90;;;;;;5036213;28;20406;-60
2021/01/28 05:38:55;;;;;;;3.17;2.87;;;6.50;99.90;;;;;;5036257;28;20387;-60
2021/01/28 05:41:40;;;;;;;4.73;4.30;;;6.50;99.90;;;;;;5035589;28;20425;-58
2021/01/28 05:44:30;;;;;;;4.27;3.73;;;6.60;99.90;;;;;;5035769;28;20390;-60
2021/01/28 05:47:07;;;;;;;5.37;4.83;;;6.50;99.90;;;;;;5035164;28;20444;-60
2021/01/28 05:49:36;;;;;;;4.80;4.20;;;6.30;99.90;;;;;;5035602;28;20437;-60
2021/01/28 05:52:34;;;;;;;4.93;4.40;;;6.20;99.90;;;;;;5035293;28;20406;-60
2021/01/28 05:55:10;;;;;;;5.20;4.70;;;6.20;99.90;;;;;;4991960;28;20429;-60
2021/01/28 05:57:49;;;;;;;5.53;4.80;;;6.30;99.90;;;;;;5035647;28;20973;-59
2021/01/28 06:00:35;;;;;;;5.67;5.07;;;6.20;99.90;;;;;;5035008;28;20421;-60
2021/01/28 06:03:26;;;;;;;5.50;4.53;;;6.20;99.90;;;;;;5017011;28;20424;-59
2021/01/28 06:06:27;;;;;;;5.53;4.60;;;6.20;99.90;;;;;;5035082;28;20410;-59
2021/01/28 06:09:49;;;;;;;6.10;5.10;;;6.20;99.90;;;;;;5034876;28;20512;-60
2021/01/28 06:12:48;;;;;;;5.27;4.57;;;6.20;99.90;;;;;;4955048;29;20442;-58
2021/01/28 06:15:28;;;;;;;5.13;4.10;;;6.30;99.90;;;;;;4954848;29;20406;-60
2021/01/28 06:18:08;;;;;;;4.80;4.33;;;6.40;99.90;;;;;;5017366;28;20418;-60
2021/01/28 06:20:43;;;;;;;4.43;4.00;;;6.40;99.90;;;;;;5034190;28;20544;-61
2021/01/28 06:23:43;;;;;;;4.50;4.10;;;6.30;99.90;;;;;;5035364;28;20386;-61
2021/01/28 06:26:40;;;;;;;5.80;5.20;;;6.30;99.90;;;;;;5034931;28;20395;-59
2021/01/28 06:29:25;;;;;;;4.90;4.40;;;6.20;99.90;;;;;;5034642;28;20440;-59
2021/01/28 06:32:08;;;;;;;5.53;4.20;;;6.30;99.90;;;;;;5034568;28;20385;-60
2021/01/28 06:34:58;;;;;;;4.53;4.00;;;6.20;99.90;;;;;;5035120;28;20390;-60
2021/01/28 06:37:48;;;;;;;4.10;3.60;;;6.00;99.90;;;;;;5034732;28;20378;-60
2021/01/28 06:40:21;;;;;;;5.63;3.70;;;6.00;99.90;;;;;;5034568;28;20471;-61
2021/01/28 06:43:04;;;;;;;3.90;3.50;;;6.20;99.90;;;;;;5035227;28;20386;-59
2021/01/28 06:45:35;;;;;;;4.00;3.60;;;6.20;99.90;;;;;;5034676;28;20390;-60
2021/01/28 06:48:13;;;;;;;4.27;3.87;;;6.20;99.90;;;;;;5034692;28;20402;-60
2021/01/28 06:50:51;;;;;;;5.53;3.50;;;6.10;99.90;;;;;;5035497;28;20907;-60
2021/01/28 06:53:42;;;;;;;4.83;3.60;;;6.40;99.90;;;;;;5027920;28;20549;-60
2021/01/28 06:56:21;;;;;;;3.17;2.87;;;6.30;99.90;;;;;;5037096;28;20772;-59
2021/01/28 06:59:10;;;;;;;3.43;2.63;;;6.10;99.90;;;;;;5037844;28;20398;-61
2021/01/28 07:01:42;;;;;;;5.87;4.40;;;6.10;99.90;;;;;;5037105;28;20449;-60
2021/01/28 07:04:35;;;;;;;7.13;3.80;;;6.20;99.90;;;;;;5037764;28;20394;-61
2021/01/28 07:07:09;;;;;;;6.57;4.03;;;6.50;99.90;;;;;;5021244;28;20407;-59
2021/01/28 07:09:41;;;;;;;3.63;3.00;;;6.50;99.90;;;;;;5017473;28;20454;-61
2021/01/28 07:12:10;;;;;;;3.47;3.17;;;6.40;99.90;;;;;;5018796;28;20387;-60
2021/01/28 07:14:37;;;;;;;2.63;2.43;;;6.40;99.90;;;;;;5018086;28;20446;-61
2021/01/28 07:17:02;;;;;;;3.20;2.90;;;6.40;99.90;;;;;;5017976;28;20930;-61
2021/01/28 07:19:37;;;;;;;3.20;2.70;;;6.30;99.90;;;;;;5018200;28;20414;-60
2021/01/28 07:22:28;;;;;;;2.83;2.53;;;6.40;99.90;;;;;;5019929;28;20671;-61
2021/01/28 07:24:54;;;;;;;3.60;3.30;;;6.40;99.90;;;;;;5027983;28;20885;-61
2021/01/28 07:27:42;;;;;;;3.30;2.90;;;6.30;99.90;;;;;;5036270;28;20410;-61
2021/01/28 07:30:08;;;;;;;4.47;3.40;;;6.40;99.90;;;;;;5039505;28;20965;-57
2021/01/28 07:32:37;;;;;;;8.37;3.70;;;6.40;99.90;;;;;;5042062;28;20417;-60
2021/01/28 07:35:24;;;;;;;3.47;2.60;;;6.40;99.90;;;;;;5041933;28;20463;-60
2021/01/28 07:37:50;;;;;;;3.50;3.17;;;6.50;99.90;;;;;;5041145;28;20430;-60
2021/01/28 07:41:07;;;;;;;3.20;2.90;;;6.50;99.90;;;;;;5041172;28;20441;-60
2021/01/28 07:43:40;;;;;;;3.53;3.10;;;6.30;99.90;;;;;;4997856;28;20418;-60
2021/01/28 07:46:32;;;;;;;3.47;3.17;;;6.20;99.90;;;;;;5042667;28;20469;-60
2021/01/28 07:49:12;;;;;;;3.77;3.40;;;6.20;99.90;;;;;;5042722;28;20847;-61
2021/01/28 07:51:40;;;;;;;3.17;2.87;;;6.30;99.90;;;;;;5042895;28;20433;-60
2021/01/28 07:54:29;;;;;;;3.43;3.13;;;6.20;99.90;;;;;;5042552;28;21005;-60
2021/01/28 07:57:02;;;;;;;7.13;3.33;;;6.10;99.90;;;;;;5029156;28;20410;-60
2021/01/28 07:59:51;;;;;;;3.30;3.00;;;6.20;99.90;;;;;;5041609;28;20824;-61
2021/01/28 08:02:23;;;;;;;3.13;2.83;;;6.30;99.90;;;;;;5041055;28;20432;-61
2021/01/28 08:05:05;;;;;;;2.67;2.47;;;6.40;99.90;;;;;;5041512;28;20393;-60
2021/01/28 08:07:40;;;;;;;2.67;2.47;;;6.40;99.90;;;;;;5041525;28;20401;-59
2021/01/28 08:10:24;;;;;;;5.00;4.43;;;6.50;99.90;;;;;;5041457;28;20464;-61
2021/01/28 08:13:02;;;;;;;2.90;2.60;;;6.50;99.90;;;;;;5041834;28;20404;-61
2021/01/28 08:15:35;;;;;;;4.23;3.83;;;6.60;99.90;;;;;;5043009;28;20466;-59
2021/01/28 08:18:28;;;;;;;3.40;3.00;;;6.90;99.90;;;;;;5042625;28;20389;-61
2021/01/28 08:21:06;;;;;;;3.10;2.80;;;6.80;99.90;;;;;;5033661;28;20450;-61
2021/01/28 08:23:32;;;;;;;3.80;2.47;;;6.80;99.90;;;;;;5042212;28;20430;-60
2021/01/28 08:26:06;;;;;;;2.40;2.20;;;6.70;99.90;;;;;;5042392;28;20399;-61
2021/01/28 08:28:40;;;;;;;2.70;2.27;;;6.60;99.90;;;;;;5041394;28;20507;-60
2021/01/28 08:31:17;;;;;;;2.17;2.00;;;6.60;99.90;;;;;;5041388;28;20513;-59
2021/01/28 08:33:46;;;;;;;4.20;2.57;;;6.60;99.90;;;;;;5042046;28;20393;-58
2021/01/28 08:36:22;;;;;;;2.20;2.00;;;6.50;99.90;;;;;;5041841;28;20409;-62
2021/01/28 08:38:48;;;;;;;1.70;1.60;;;6.70;99.90;;;;;;5042366;28;20387;-59
2021/01/28 08:41:17;;;;;;;2.20;1.70;;;6.80;99.90;;;;;;5043388;28;20427;-58
2021/01/28 08:43:43;;;;;;;2.60;2.00;;;6.70;99.90;;;;;;5039678;28;20493;-60
2021/01/28 08:46:20;;;;;;;2.13;1.90;;;6.70;99.90;;;;;;5036079;28;20405;-62
2021/01/28 08:48:47;;;;;;;1.77;1.67;;;6.80;99.90;;;;;;5035631;28;20445;-62
2021/01/28 08:51:20;;;;;;;2.27;2.00;;;6.70;99.90;;;;;;5035184;28;20422;-63
2021/01/28 08:53:55;;;;;;;2.03;1.70;;;6.80;99.90;;;;;;5035213;28;20425;-63
2021/01/28 08:56:24;;;;;;;1.80;1.37;;;6.70;99.90;;;;;;5036989;28;20916;-63
2021/01/28 08:58:50;;;;;;;2.93;2.30;;;6.70;99.90;;;;;;5035298;28;20406;-62
2021/01/28 09:01:16;;;;;;;2.03;1.83;;;6.60;99.90;;;;;;5034724;28;20503;-63
2021/01/28 09:04:03;;;;;;;1.80;1.70;;;6.60;99.90;;;;;;5034513;28;20414;-62
2021/01/28 09:06:37;;;;;;;1.77;1.40;;;6.50;99.90;;;;;;5004317;28;20566;-62
2021/01/28 09:09:12;;;;;;;2.07;1.50;;;6.60;99.90;;;;;;5015391;28;20489;-62
2021/01/28 09:11:38;;;;;;;2.03;1.40;;;6.70;99.90;;;;;;5014701;28;20418;-63
2021/01/28 09:14:32;;;;;;;1.90;1.80;;;6.70;99.90;;;;;;5015379;28;20406;-62
2021/01/28 09:17:05;;;;;;;1.10;1.00;;;6.70;99.90;;;;;;5014515;28;20228;-62
2021/01/28 09:19:38;;;;;;;2.67;1.53;;;6.70;99.90;;;;;;5014655;28;20427;-62
2021/01/28 09:22:17;;;;;;;1.37;1.27;;;6.70;99.90;;;;;;5014709;28;20472;-62
2021/01/28 09:24:47;;;;;;;1.67;1.43;;;6.70;99.90;;;;;;5014867;28;20402;-61
2021/01/28 09:27:20;;;;;;;2.80;1.37;;;6.80;99.90;;;;;;5014823;28;20693;-58
2021/01/28 09:29:48;;;;;;;2.27;1.30;;;6.80;99.90;;;;;;5014800;28;20827;-62
2021/01/28 09:32:33;;;;;;;1.47;1.37;;;6.80;99.90;;;;;;5014371;28;20407;-62
2021/01/28 09:35:09;;;;;;;1.83;1.10;;;6.90;99.90;;;;;;5014390;28;20442;-61
2021/01/28 09:37:37;;;;;;;1.90;1.40;;;7.00;99.90;;;;;;5014587;28;20406;-62
2021/01/28 09:40:19;;;;;;;1.50;1.40;;;7.00;99.90;;;;;;5014458;28;20431;-62
2021/01/28 09:42:46;;;;;;;2.60;1.67;;;7.00;99.90;;;;;;5015637;28;20426;-62
2021/01/28 09:45:20;;;;;;;2.87;1.20;;;7.10;99.90;;;;;;5031835;28;20480;-62
2021/01/28 09:47:56;;;;;;;1.20;1.10;;;7.10;99.90;;;;;;5016181;28;20424;-62
2021/01/28 09:50:23;;;;;;;2.50;1.30;;;7.00;99.90;;;;;;5033348;28;20458;-62
2021/01/28 09:52:50;;;;;;;2.43;2.23;;;7.10;99.90;;;;;;5033750;28;20211;-62
2021/01/28 09:55:22;;;;;;;1.80;1.60;;;7.10;99.90;;;;;;5032369;28;20817;-62
2021/01/28 09:57:48;;;;;;;1.87;1.67;;;7.00;99.90;;;;;;5034584;28;20205;-61
2021/01/28 10:00:17;;;;;;;1.67;1.30;;;7.10;99.90;;;;;;5027457;28;20884;-63
2021/01/28 10:02:47;;;;;;;2.17;1.50;;;7.10;99.90;;;;;;5017406;28;20419;-63
2021/01/28 10:05:15;;;;;;;1.90;1.43;;;7.20;99.90;;;;;;5016107;28;20411;-63
2021/01/28 10:07:41;;;;;;;1.60;1.50;;;7.20;99.90;;;;;;5033540;28;20402;-63
2021/01/28 10:10:08;;;;;;;1.47;1.37;;;7.30;99.90;;;;;;5033484;28;20465;-63
2021/01/28 10:12:34;;;;;;;2.80;1.70;;;7.20;99.90;;;;;;5034391;28;20167;-63
2021/01/28 10:15:00;;;;;;;1.40;1.30;;;7.30;99.90;;;;;;5034976;28;20407;-63
2021/01/28 10:17:25;;;;;;;1.87;1.10;;;7.30;99.90;;;;;;5034575;28;20184;-60
2021/01/28 10:19:51;;;;;;;1.93;1.70;;;7.40;99.90;;;;;;5034221;28;20449;-61
2021/01/28 10:22:19;;;;;;;1.63;1.40;;;7.30;99.90;;;;;;5034077;28;20171;-63
2021/01/28 10:24:46;;;;;;;2.07;1.40;;;7.40;99.90;;;;;;5033529;28;20655;-63
2021/01/28 10:27:12;;;;;;;2.13;1.80;;;7.60;99.90;;;;;;5033710;28;20406;-63
2021/01/28 10:29:41;;;;;;;1.37;1.27;;;7.60;99.90;;;;;;5033529;28;20446;-63
2021/01/28 10:32:09;;;;;;;3.23;1.53;;;7.60;99.90;;;;;;5033677;28;20419;-63
2021/01/28 10:34:36;;;;;;;2.50;1.30;;;7.60;99.90;;;;;;5033798;28;20441;-63
2021/01/28 10:37:02;;;;;;;1.10;1.00;;;7.60;99.90;;;;;;5033428;28;20411;-58
2021/01/28 10:39:28;;;;;;;1.20;0.90;;;7.70;99.90;;;;;;5033169;28;20409;-61
2021/01/28 10:41:54;;;;;;;1.20;1.10;;;7.80;99.90;;;;;;5033343;28;20909;-60
2021/01/28 10:44:21;;;;;;;1.20;1.10;;;7.80;99.90;;;;;;5033519;28;20256;-60
2021/01/28 10:46:47;;;;;;;2.80;1.23;;;7.90;99.90;;;;;;5033464;28;20790;-59
2021/01/28 10:49:13;;;;;;;2.27;1.23;;;7.90;99.90;;;;;;5033288;28;20543;-60
2021/01/28 10:51:40;;;;;;;1.10;1.00;;;7.90;99.90;;;;;;5031072;28;20450;-62
2021/01/28 10:54:06;;;;;;;1.13;1.00;;;8.00;99.90;;;;;;5039390;28;20421;-60
2021/01/28 10:56:32;;;;;;;2.00;1.00;;;8.00;99.90;;;;;;5032935;28;20426;-60
2021/01/28 10:58:57;;;;;;;2.00;1.20;;;8.10;99.90;;;;;;5032977;28;20176;-59
2021/01/28 11:01:23;;;;;;;1.10;0.80;;;8.20;99.90;;;;;;5032910;28;20545;-57
2021/01/28 11:03:49;;;;;;;1.70;1.00;;;8.30;99.90;;;;;;5032673;28;20173;-61
2021/01/28 11:06:14;;;;;;;1.50;1.40;;;8.40;99.90;;;;;;5023004;28;20192;-59
2021/01/28 11:08:40;;;;;;;0.87;0.77;;;8.60;99.90;;;;;;5017136;28;20202;-61
2021/01/28 11:11:06;;;;;;;1.00;0.83;;;8.50;99.90;;;;;;5017171;28;20275;-61
2021/01/28 11:13:33;;;;;;;1.00;0.80;;;8.60;99.90;;;;;;5016963;28;20840;-60
2021/01/28 11:15:58;;;;;;;1.60;1.30;;;8.70;99.90;;;;;;5017051;28;20493;-61
2021/01/28 11:18:24;;;;;;;1.00;0.80;;;8.70;99.90;;;;;;5017133;28;20445;-61
2021/01/28 11:20:51;;;;;;;1.93;1.53;;;8.80;99.90;;;;;;5016802;28;20460;-62
2021/01/28 11:23:16;;;;;;;1.53;1.03;;;8.80;99.90;;;;;;5017033;28;20165;-58
2021/01/28 11:25:42;;;;;;;1.37;1.00;;;8.70;99.90;;;;;;5017421;28;20840;-63
2021/01/28 11:28:08;;;;;;;3.83;2.43;;;8.60;99.90;;;;;;5016691;28;20183;-63
2021/01/28 11:30:35;;;;;;;3.40;0.97;;;8.50;99.90;;;;;;5016723;28;20263;-62
2021/01/28 11:33:04;;;;;;;1.97;1.07;;;8.50;99.90;;;;;;5017076;28;20504;-61
2021/01/28 11:35:32;;;;;;;1.20;0.80;;;8.50;99.90;;;;;;5023689;28;20433;-63
2021/01/28 11:37:59;;;;;;;2.38;1.30;;;8.70;99.90;;;;;;5035463;28;20479;-63
2021/01/28 11:40:27;;;;;;;1.00;0.77;;;9.00;99.90;;;;;;5016959;28;20189;-61
2021/01/28 11:42:53;;;;;;;0.70;0.60;;;9.10;99.90;;;;;;5016937;28;20432;-62
2021/01/28 11:45:26;;;;;;;1.63;1.30;;;9.40;99.90;;;;;;5016354;28;20916;-62
2021/01/28 11:47:51;;;;;;;1.00;0.90;;;9.50;99.90;;;;;;5015893;28;20951;-64
2021/01/28 11:50:18;;;;;;;1.70;1.00;;;9.50;99.90;;;;;;5034876;28;20534;-63
2021/01/28 11:52:44;;;;;;;1.27;0.90;;;9.40;99.90;;;;;;5033122;28;20643;-62
2021/01/28 11:55:13;;;;;;;1.40;1.30;;;9.40;99.90;;;;;;5016791;28;20401;-61
2021/01/28 11:57:39;;;;;;;1.83;0.90;;;9.40;99.90;;;;;;5016553;28;20401;-63
2021/01/28 12:00:07;;;;;;;1.00;0.93;;;9.50;99.90;;;;;;5015971;28;20428;-62
2021/01/28 12:02:33;;;;;;;1.03;0.90;;;9.40;99.90;;;;;;5015808;28;20574;-62
2021/01/28 12:04:58;;;;;;;1.23;0.97;;;9.40;99.90;;;;;;5016209;28;20440;-61
2021/01/28 12:07:24;;;;;;;1.07;1.00;;;9.50;99.90;;;;;;5035866;28;20204;-63
2021/01/28 12:09:49;;;;;;;1.67;0.77;;;9.70;99.90;;;;;;5035717;28;20211;-64
2021/01/28 12:12:15;;;;;;;1.00;0.90;;;9.70;99.90;;;;;;5036115;28;20252;-63
2021/01/28 12:14:40;;;;;;;1.20;1.10;;;9.90;99.90;;;;;;5018007;28;20317;-62
2021/01/28 12:17:06;;;;;;;1.00;0.90;;;10.00;99.90;;;;;;5035636;28;20168;-62
2021/01/28 12:19:32;;;;;;;1.50;1.40;;;10.10;99.90;;;;;;5034555;28;20252;-63
2021/01/28 12:21:57;;;;;;;1.60;1.40;;;10.00;99.90;;;;;;5035806;28;20174;-62
2021/01/28 12:24:23;;;;;;;1.60;1.30;;;9.90;99.90;;;;;;5041919;28;20652;-63
2021/01/28 12:26:49;;;;;;;3.23;1.40;;;10.00;99.90;;;;;;5055426;28;20172;-63
2021/01/28 12:29:14;;;;;;;1.20;1.03;;;10.10;99.90;;;;;;5052283;28;20218;-63
2021/01/28 12:31:40;;;;;;;0.93;0.83;;;10.20;99.90;;;;;;5035372;28;20179;-62
2021/01/28 12:34:05;;;;;;;1.70;1.00;;;10.30;99.90;;;;;;5035011;28;20173;-64
2021/01/28 12:36:31;;;;;;;1.47;1.10;;;10.60;99.90;;;;;;5035502;28;20168;-63
2021/01/28 12:38:57;;;;;;;2.90;1.23;;;10.60;99.90;;;;;;5035448;28;20173;-63
2021/01/28 12:41:22;;;;;;;1.17;1.07;;;10.60;99.90;;;;;;5035043;28;20224;-64
2021/01/28 12:43:48;;;;;;;1.20;1.10;;;10.50;99.90;;;;;;5017335;28;20217;-64
2021/01/28 12:46:14;;;;;;;1.50;1.20;;;10.40;99.90;;;;;;5035051;28;20172;-64
2021/01/28 12:48:39;;;;;;;3.27;0.80;;;10.60;99.90;;;;;;5035264;28;20235;-62
2021/01/28 12:51:05;;;;;;;1.10;1.00;;;10.80;99.90;;;;;;5034938;28;20665;-66
2021/01/28 12:53:32;;;;;;;1.30;0.93;;;10.60;99.90;;;;;;5026496;28;20463;-65
2021/01/28 12:55:57;;;;;;;2.70;0.93;;;11.10;99.90;;;;;;5014962;28;20258;-65
2021/01/28 12:58:23;;;;;;;1.30;1.13;;;10.70;99.90;;;;;;5034620;28;20454;-65
2021/01/28 13:00:49;;;;;;;1.37;1.00;;;10.60;99.90;;;;;;5036586;28;20192;-65
2021/01/28 13:03:14;;;;;;;1.20;1.00;;;10.60;99.90;;;;;;5035827;28;20213;-65
2021/01/28 13:05:40;;;;;;;1.10;1.00;;;10.70;99.90;;;;;;5034604;28;20173;-66
2021/01/28 13:08:06;;;;;;;3.20;1.50;;;10.50;99.90;;;;;;5034742;28;20205;-66
2021/01/28 13:10:32;;;;;;;1.23;1.13;;;10.40;99.90;;;;;;5034409;28;20207;-64
2021/01/28 13:12:58;;;;;;;1.53;1.10;;;10.40;99.90;;;;;;5034456;28;20424;-65
2021/01/28 13:15:23;;;;;;;2.47;1.87;;;10.50;99.90;;;;;;5034612;28;20283;-66